createdAt,value
2022-10-23T00:00:28.285Z,100712.03
2022-10-23T00:03:30.856Z,100709.69
2022-10-23T00:06:34.244Z,100716.44
2022-10-23T00:09:36.714Z,100721.69
2022-10-23T00:12:39.295Z,100717.56
2022-10-23T00:15:42.031Z,100716.38
2022-10-23T00:18:45.698Z,100719.66
2022-10-23T00:21:48.353Z,100729.47
2022-10-23T00:24:50.628Z,100743.75
2022-10-23T00:27:53.224Z,100741.22
2022-10-23T00:30:55.573Z,100740.47
2022-10-23T00:33:58.123Z,100740.19
2022-10-23T00:37:00.247Z,100739.13
2022-10-23T00:40:04.656Z,100748.22
2022-10-23T00:43:13.935Z,100753.03
2022-10-23T00:46:16.345Z,100752.94
2022-10-23T00:49:20.218Z,100768.59
2022-10-23T00:52:22.820Z,100760.06
2022-10-23T00:55:26.738Z,100763.72
2022-10-23T00:58:29.508Z,100773.75
2022-10-23T01:01:32.244Z,100773.13
2022-10-23T01:04:36.370Z,100777.03
2022-10-23T01:07:49.444Z,100777.41
2022-10-23T01:11:16.488Z,100786.31
2022-10-23T01:15:11.206Z,100787.44
2022-10-23T01:18:31.909Z,100798.72
2022-10-23T01:21:54.333Z,100805.94
2022-10-23T01:25:00.928Z,100800.13
2022-10-23T01:28:08.911Z,100803.03
2022-10-23T01:31:17.760Z,100800.50
2022-10-23T01:34:29.721Z,100803.88
2022-10-23T01:38:05.462Z,100801.81
2022-10-23T01:41:14.726Z,100800.50
2022-10-23T01:44:28.376Z,100800.41
2022-10-23T01:47:35.387Z,100799.16
2022-10-23T01:50:41.196Z,100795.47
2022-10-23T01:53:47.359Z,100798.44
2022-10-23T01:56:52.432Z,100795.12
2022-10-23T02:00:05.119Z,100803.56
2022-10-23T02:03:12.483Z,100800.03
2022-10-23T02:06:15.147Z,100797.69
2022-10-23T02:09:17.464Z,100794.59
2022-10-23T02:12:49.597Z,100800.00
2022-10-23T02:16:16.708Z,100796.91
2022-10-23T02:19:29.325Z,100793.31
2022-10-23T02:22:54.350Z,100798.09
2022-10-23T02:26:02.504Z,100797.94
2022-10-23T02:29:10.983Z,100799.66
2022-10-23T02:32:15.753Z,100804.97
2022-10-23T02:35:21.081Z,100797.03
2022-10-23T02:38:36.814Z,100809.47
2022-10-23T02:41:45.253Z,100811.22
2022-10-23T02:44:55.667Z,100814.50
2022-10-23T02:48:04.565Z,100819.75
2022-10-23T02:51:18.307Z,100835.72
2022-10-23T02:54:39.313Z,100843.00
2022-10-23T02:58:04.998Z,100838.09
2022-10-23T03:01:16.120Z,100849.94
2022-10-23T03:04:21.384Z,100838.59
2022-10-23T03:07:26.537Z,100838.97
2022-10-23T03:10:33.461Z,100840.63
2022-10-23T03:13:36.018Z,100845.62
2022-10-23T03:16:38.185Z,100844.09
2022-10-23T03:19:40.670Z,100851.28
2022-10-23T03:22:43.059Z,100854.69
2022-10-23T03:25:45.823Z,100855.09
2022-10-23T03:28:56.018Z,100853.25
2022-10-23T03:31:59.000Z,100857.75
2022-10-23T03:35:01.345Z,100860.28
2022-10-23T03:38:04.007Z,100857.47
2022-10-23T03:41:06.271Z,100852.50
2022-10-23T03:44:08.772Z,100857.19
2022-10-23T03:47:12.072Z,100855.91
2022-10-23T03:50:14.840Z,100849.06
2022-10-23T03:53:17.012Z,100849.53
2022-10-23T03:56:19.528Z,100843.44
2022-10-23T03:59:21.735Z,100854.06
2022-10-23T04:02:24.691Z,100863.09
2022-10-23T04:05:27.529Z,100862.44
2022-10-23T04:08:29.873Z,100868.44
2022-10-23T04:11:33.065Z,100868.66
2022-10-23T04:14:35.357Z,100869.28
2022-10-23T04:17:38.619Z,100858.81
2022-10-23T04:20:40.928Z,100846.91
2022-10-23T04:23:43.853Z,100856.75
2022-10-23T04:26:46.313Z,100854.97
2022-10-23T04:29:49.299Z,100846.03
2022-10-23T04:32:52.220Z,100854.22
2022-10-23T04:35:54.911Z,100847.75
2022-10-23T04:38:57.272Z,100848.13
2022-10-23T04:42:00.139Z,100843.09
2022-10-23T04:45:02.363Z,100844.91
2022-10-23T04:48:05.089Z,100851.13
2022-10-23T04:51:11.115Z,100856.97
2022-10-23T04:54:14.506Z,100862.19
2022-10-23T04:57:17.222Z,100859.91
2022-10-23T05:00:20.904Z,100870.34
2022-10-23T05:03:24.909Z,100865.53
2022-10-23T05:06:27.568Z,100866.44
2022-10-23T05:09:30.181Z,100869.22
2022-10-23T05:12:34.633Z,100872.22
2022-10-23T05:15:38.274Z,100873.56
2022-10-23T05:18:47.735Z,100870.34
2022-10-23T05:21:55.934Z,100877.78
2022-10-23T05:25:02.149Z,100880.19
2022-10-23T05:28:05.676Z,100872.03
2022-10-23T05:31:08.374Z,100867.22
2022-10-23T05:34:15.157Z,100871.91
2022-10-23T05:37:18.202Z,100881.81
2022-10-23T05:40:20.820Z,100883.00
2022-10-23T05:43:26.017Z,100890.59
2022-10-23T05:46:29.007Z,100891.66
2022-10-23T05:49:31.942Z,100893.31
2022-10-23T05:52:42.332Z,100897.38
2022-10-23T05:55:45.436Z,100887.16
2022-10-23T05:58:47.678Z,100889.22
2022-10-23T06:01:50.539Z,100883.91
2022-10-23T06:04:53.738Z,100886.59
2022-10-23T06:08:00.296Z,100887.38
2022-10-23T06:11:11.174Z,100887.81
2022-10-23T06:14:13.588Z,100904.69
2022-10-23T06:17:16.810Z,100897.56
2022-10-23T06:20:19.835Z,100895.38
2022-10-23T06:23:26.449Z,100910.09
2022-10-23T06:26:29.916Z,100912.28
2022-10-23T06:29:32.988Z,100914.50
2022-10-23T06:32:36.036Z,100932.09
2022-10-23T06:35:39.406Z,100931.13
2022-10-23T06:38:41.613Z,100929.31
2022-10-23T06:41:45.410Z,100934.19
2022-10-23T06:44:52.023Z,100944.66
2022-10-23T06:47:58.423Z,100950.88
2022-10-23T06:51:08.394Z,100961.28
2022-10-23T06:54:11.515Z,100955.56
2022-10-23T06:57:14.537Z,100940.19
2022-10-23T07:00:17.317Z,100953.16
2022-10-23T07:03:21.246Z,100954.50
2022-10-23T07:06:23.737Z,100955.78
2022-10-23T07:09:26.198Z,100958.78
2022-10-23T07:12:31.152Z,100955.87
2022-10-23T07:15:36.193Z,100956.28
2022-10-23T07:18:39.197Z,100958.25
2022-10-23T07:21:44.300Z,100963.00
2022-10-23T07:24:47.712Z,100967.41
2022-10-23T07:27:50.483Z,100969.66
2022-10-23T07:31:02.406Z,100965.44
2022-10-23T07:34:06.457Z,100964.91
2022-10-23T07:37:09.525Z,100959.31
2022-10-23T07:40:12.496Z,100957.47
2022-10-23T07:43:17.288Z,100961.84
2022-10-23T07:46:19.471Z,100946.50
2022-10-23T07:49:23.173Z,100945.63
2022-10-23T07:52:25.580Z,100953.78
2022-10-23T07:55:31.172Z,100951.75
2022-10-23T07:58:33.806Z,100954.19
2022-10-23T08:01:38.727Z,100956.31
2022-10-23T08:04:41.292Z,100947.72
2022-10-23T08:07:45.301Z,100950.97
2022-10-23T08:10:49.704Z,100946.84
2022-10-23T08:13:56.123Z,100945.56
2022-10-23T08:16:59.522Z,100949.28
2022-10-23T08:20:03.539Z,100942.66
2022-10-23T08:23:07.509Z,100949.59
2022-10-23T08:26:10.169Z,100947.72
2022-10-23T08:29:12.669Z,100949.00
2022-10-23T08:32:15.328Z,100950.56
2022-10-23T08:35:20.082Z,100946.75
2022-10-23T08:38:23.241Z,100943.69
2022-10-23T08:41:32.387Z,100951.00
2022-10-23T08:44:50.078Z,100954.25
2022-10-23T08:47:57.194Z,100965.56
2022-10-23T08:51:13.572Z,100962.87
2022-10-23T08:54:24.317Z,100956.06
2022-10-23T08:57:34.601Z,100948.87
2022-10-23T09:00:37.205Z,100949.91
2022-10-23T09:03:39.391Z,100940.09
2022-10-23T09:06:55.990Z,100947.41
2022-10-23T09:10:25.064Z,100939.00
2022-10-23T09:13:55.878Z,100948.25
2022-10-23T09:17:16.409Z,100951.31
2022-10-23T09:20:22.588Z,100952.41
2022-10-23T09:23:24.838Z,100952.91
2022-10-23T09:26:27.426Z,100958.00
2022-10-23T09:29:32.889Z,100955.75
2022-10-23T09:32:38.584Z,100966.44
2022-10-23T09:35:53.079Z,100973.94
2022-10-23T09:38:58.938Z,100977.22
2022-10-23T09:42:13.276Z,100977.62
2022-10-23T09:45:27.747Z,100972.69
2022-10-23T09:48:31.113Z,100971.41
2022-10-23T09:51:34.472Z,100965.41
2022-10-23T09:54:39.676Z,100969.37
2022-10-23T09:57:44.873Z,100972.03
2022-10-23T10:00:50.169Z,100963.81
2022-10-23T10:03:55.811Z,100972.72
2022-10-23T10:06:59.489Z,100961.91
2022-10-23T10:10:02.006Z,100955.75
2022-10-23T10:13:20.511Z,100953.81
2022-10-23T10:16:35.177Z,100952.63
2022-10-23T10:20:20.866Z,100942.75
2022-10-23T10:23:30.814Z,100948.87
2022-10-23T10:26:57.471Z,100948.63
2022-10-23T10:30:05.772Z,100936.97
2022-10-23T10:33:17.170Z,100932.66
2022-10-23T10:36:55.472Z,100938.56
2022-10-23T10:40:06.580Z,100932.53
2022-10-23T10:43:44.384Z,100928.78
2022-10-23T10:47:15.881Z,100931.47
2022-10-23T10:50:30.490Z,100925.44
2022-10-23T10:53:55.069Z,100918.09
2022-10-23T10:57:00.125Z,100917.12
2022-10-23T11:00:25.940Z,100910.16
2022-10-23T11:03:39.196Z,100907.63
2022-10-23T11:06:46.355Z,100894.25
2022-10-23T11:09:49.873Z,100891.37
2022-10-23T11:12:52.455Z,100885.00
2022-10-23T11:16:04.567Z,100883.44
2022-10-23T11:19:27.481Z,100880.78
2022-10-23T11:22:37.800Z,100878.97
2022-10-23T11:25:55.153Z,100887.63
2022-10-23T11:29:35.381Z,100879.31
2022-10-23T11:33:13.871Z,100877.41
2022-10-23T11:36:17.893Z,100882.00
2022-10-23T11:39:29.585Z,100875.13
2022-10-23T11:42:37.096Z,100872.94
2022-10-23T11:45:40.766Z,100873.19
2022-10-23T11:48:44.317Z,100884.37
2022-10-23T11:51:46.475Z,100873.97
2022-10-23T11:54:48.939Z,100867.41
2022-10-23T11:58:23.086Z,100871.66
2022-10-23T12:01:36.319Z,100862.88
2022-10-23T12:04:46.653Z,100858.44
2022-10-23T12:07:55.872Z,100857.44
2022-10-23T12:10:58.409Z,100849.00
2022-10-23T12:14:00.627Z,100846.94
2022-10-23T12:17:03.685Z,100853.16
2022-10-23T12:20:08.741Z,100847.44
2022-10-23T12:23:27.302Z,100837.84
2022-10-23T12:26:51.619Z,100839.44
2022-10-23T12:30:01.378Z,100827.19
2022-10-23T12:33:24.175Z,100828.06
2022-10-23T12:36:26.544Z,100824.41
2022-10-23T12:39:30.945Z,100819.00
2022-10-23T12:42:33.910Z,100817.91
2022-10-23T12:45:40.052Z,100813.84
2022-10-23T12:48:50.200Z,100814.81
2022-10-23T12:52:16.757Z,100815.25
2022-10-23T12:55:19.445Z,100802.50
2022-10-23T12:58:24.463Z,100805.00
2022-10-23T13:01:34.787Z,100804.50
2022-10-23T13:04:37.866Z,100800.31
2022-10-23T13:07:46.365Z,100808.38
2022-10-23T13:10:50.242Z,100805.56
2022-10-23T13:13:53.740Z,100796.78
2022-10-23T13:17:05.010Z,100789.47
2022-10-23T13:20:22.269Z,100791.00
2022-10-23T13:23:35.001Z,100787.88
2022-10-23T13:26:47.274Z,100785.41
2022-10-23T13:29:49.387Z,100784.22
2022-10-23T13:32:51.903Z,100779.37
2022-10-23T13:36:13.421Z,100770.28
2022-10-23T13:39:16.607Z,100777.09
2022-10-23T13:42:18.805Z,100760.00
2022-10-23T13:45:26.696Z,100766.44
2022-10-23T13:48:31.888Z,100759.81
2022-10-23T13:51:42.803Z,100759.66
2022-10-23T13:54:45.474Z,100756.06
2022-10-23T13:57:47.967Z,100752.22
2022-10-23T14:00:52.564Z,100750.06
2022-10-23T14:03:56.887Z,100742.72
2022-10-23T14:06:59.032Z,100746.13
2022-10-23T14:10:01.576Z,100740.47
2022-10-23T14:13:03.692Z,100743.22
2022-10-23T14:16:08.150Z,100740.22
2022-10-23T14:19:11.779Z,100730.59
2022-10-23T14:22:14.332Z,100731.50
2022-10-23T14:25:16.864Z,100730.88
2022-10-23T14:28:19.385Z,100717.94
2022-10-23T14:31:21.933Z,100727.81
2022-10-23T14:34:24.423Z,100720.06
2022-10-23T14:37:26.536Z,100729.38
2022-10-23T14:40:29.018Z,100722.53
2022-10-23T14:43:31.159Z,100712.88
2022-10-23T14:46:37.547Z,100711.59
2022-10-23T14:49:40.402Z,100696.31
2022-10-23T14:52:42.951Z,100689.56
2022-10-23T14:55:45.092Z,100685.75
2022-10-23T14:58:47.580Z,100694.06
2022-10-23T15:01:49.848Z,100693.47
2022-10-23T15:04:52.426Z,100690.12
2022-10-23T15:07:55.279Z,100697.47
2022-10-23T15:11:01.171Z,100686.00
2022-10-23T15:14:03.310Z,100684.94
2022-10-23T15:17:05.829Z,100672.19
2022-10-23T15:20:08.818Z,100660.87
2022-10-23T15:23:11.282Z,100651.38
2022-10-23T15:26:20.345Z,100653.44
2022-10-23T15:29:23.241Z,100646.00
2022-10-23T15:32:25.367Z,100653.34
2022-10-23T15:38:30.052Z,100664.91
2022-10-23T15:41:34.239Z,100665.28
2022-10-23T15:44:36.451Z,100667.69
2022-10-23T15:47:38.892Z,100664.06
2022-10-23T15:50:41.070Z,100668.41
2022-10-23T15:53:43.632Z,100675.97
2022-10-23T15:56:48.426Z,100675.13
2022-10-23T15:59:51.186Z,100673.22
2022-10-23T16:02:53.415Z,100667.06
2022-10-23T16:05:55.982Z,100669.03
2022-10-23T16:08:58.278Z,100675.50
2022-10-23T16:12:00.804Z,100675.62
2022-10-23T16:15:03.037Z,100675.62
2022-10-23T16:18:06.523Z,100674.66
2022-10-23T16:21:17.807Z,100679.25
2022-10-23T16:24:20.416Z,100681.63
2022-10-23T16:27:22.605Z,100685.84
2022-10-23T16:30:25.075Z,100706.62
2022-10-23T16:33:27.414Z,100717.78
2022-10-23T16:36:29.859Z,100713.84
2022-10-23T16:39:33.913Z,100713.59
2022-10-23T16:42:49.069Z,100709.59
2022-10-23T16:46:07.444Z,100710.56
2022-10-23T16:49:09.965Z,100706.62
2022-10-23T16:52:12.156Z,100699.16
2022-10-23T16:55:14.820Z,100700.12
2022-10-23T16:58:16.966Z,100705.16
2022-10-23T17:01:21.975Z,100723.19
2022-10-23T17:04:24.261Z,100719.22
2022-10-23T17:07:26.862Z,100724.63
2022-10-23T17:10:29.043Z,100732.31
2022-10-23T17:13:31.860Z,100735.78
2022-10-23T17:16:38.252Z,100729.31
2022-10-23T17:19:46.020Z,100734.00
2022-10-23T17:22:48.603Z,100729.69
2022-10-23T17:25:51.088Z,100721.75
2022-10-23T17:28:53.259Z,100720.19
2022-10-23T17:31:55.772Z,100711.53
2022-10-23T17:34:57.974Z,100716.91
2022-10-23T17:38:00.666Z,100719.44
2022-10-23T17:41:03.277Z,100717.75
2022-10-23T17:44:06.082Z,100715.72
2022-10-23T17:47:08.289Z,100706.81
2022-10-23T17:50:12.288Z,100699.97
2022-10-23T17:53:14.444Z,100693.16
2022-10-23T17:56:22.751Z,100695.31
2022-10-23T17:59:24.863Z,100686.66
2022-10-23T18:02:27.528Z,100691.25
2022-10-23T18:05:33.125Z,100687.13
2022-10-23T18:08:36.832Z,100693.50
2022-10-23T18:11:46.908Z,100691.59
2022-10-23T18:14:50.175Z,100687.72
2022-10-23T18:17:52.727Z,100698.31
2022-10-23T18:20:56.975Z,100698.69
2022-10-23T18:24:00.506Z,100700.00
2022-10-23T18:27:02.675Z,100696.16
2022-10-23T18:30:06.397Z,100698.19
2022-10-23T18:33:08.589Z,100700.59
2022-10-23T18:36:32.109Z,100708.06
2022-10-23T18:39:34.265Z,100696.62
2022-10-23T18:42:36.749Z,100694.00
2022-10-23T18:45:42.378Z,100692.31
2022-10-23T18:48:45.689Z,100682.81
2022-10-23T18:51:49.854Z,100688.00
2022-10-23T18:54:52.402Z,100689.69
2022-10-23T18:57:54.580Z,100694.47
2022-10-23T19:00:57.214Z,100697.75
2022-10-23T19:04:01.279Z,100697.75
2022-10-23T19:07:03.921Z,100687.28
2022-10-23T19:10:06.771Z,100695.94
2022-10-23T19:13:09.529Z,100691.97
2022-10-23T19:16:33.323Z,100684.78
2022-10-23T19:19:41.056Z,100682.97
2022-10-23T19:22:47.178Z,100691.00
2022-10-23T19:25:49.903Z,100696.19
2022-10-23T19:31:55.608Z,100702.88
2022-10-23T19:34:58.990Z,100697.97
2022-10-23T19:38:01.510Z,100700.59
2022-10-23T19:41:03.941Z,100704.22
2022-10-23T19:44:06.391Z,100696.06
2022-10-23T19:47:08.544Z,100696.75
2022-10-23T19:50:11.056Z,100691.47
2022-10-23T19:53:13.198Z,100697.84
2022-10-23T19:56:15.706Z,100691.47
2022-10-23T19:59:18.336Z,100697.00
2022-10-23T20:02:21.119Z,100696.31
2022-10-23T20:05:23.774Z,100704.31
2022-10-23T20:08:25.952Z,100700.47
2022-10-23T20:11:30.669Z,100706.12
2022-10-23T20:14:33.445Z,100702.41
2022-10-23T20:17:36.115Z,100704.00
2022-10-23T20:20:42.527Z,100697.38
2022-10-23T20:23:45.285Z,100700.97
2022-10-23T20:26:52.324Z,100695.81
2022-10-23T20:29:54.847Z,100702.41
2022-10-23T20:32:56.999Z,100698.19
2022-10-23T20:35:59.504Z,100693.63
2022-10-23T20:39:04.379Z,100690.87
2022-10-23T20:42:07.629Z,100676.47
2022-10-23T20:45:10.430Z,100679.47
2022-10-23T20:48:12.912Z,100674.44
2022-10-23T20:51:20.369Z,100670.81
2022-10-23T20:54:25.149Z,100661.00
2022-10-23T20:57:27.641Z,100658.44
2022-10-23T21:00:30.224Z,100657.00
2022-10-23T21:03:33.019Z,100654.25
2022-10-23T21:06:51.594Z,100657.91
2022-10-23T21:09:57.651Z,100661.78
2022-10-23T21:13:00.178Z,100660.81
2022-10-23T21:16:18.841Z,100663.56
2022-10-23T21:19:21.290Z,100656.38
2022-10-23T21:22:23.494Z,100646.16
2022-10-23T21:25:25.975Z,100641.13
2022-10-23T21:28:28.379Z,100645.66
2022-10-23T21:31:30.920Z,100647.97
2022-10-23T21:34:33.101Z,100662.28
2022-10-23T21:37:37.652Z,100650.97
2022-10-23T21:40:39.844Z,100649.31
2022-10-23T21:43:42.340Z,100653.13
2022-10-23T21:46:44.491Z,100660.81
2022-10-23T21:49:47.051Z,100666.22
2022-10-23T21:52:52.784Z,100662.28
2022-10-23T21:56:01.051Z,100662.28
2022-10-23T22:02:09.383Z,100646.53
2022-10-23T22:05:12.015Z,100646.75
2022-10-23T22:08:14.192Z,100642.56
2022-10-23T22:11:16.817Z,100641.72
2022-10-23T22:14:19.388Z,100655.28
2022-10-23T22:17:21.986Z,100651.94
2022-10-23T22:20:24.191Z,100654.69
2022-10-23T22:23:26.687Z,100650.47
2022-10-23T22:26:36.630Z,100650.13
2022-10-23T22:29:39.140Z,100644.66
2022-10-23T22:32:41.407Z,100646.44
2022-10-23T22:35:44.043Z,100654.37
2022-10-23T22:38:46.936Z,100658.88
2022-10-23T22:41:49.640Z,100651.94
2022-10-23T22:44:51.792Z,100660.69
2022-10-23T22:47:54.295Z,100655.22
2022-10-23T22:50:56.548Z,100648.25
2022-10-23T22:53:59.664Z,100645.97
2022-10-23T22:57:01.853Z,100649.94
2022-10-23T23:00:06.920Z,100647.97
2022-10-23T23:03:11.512Z,100638.22
2022-10-23T23:06:14.577Z,100637.25
2022-10-23T23:09:18.130Z,100628.84
2022-10-23T23:12:20.984Z,100624.41
2022-10-23T23:15:23.102Z,100631.72
2022-10-23T23:18:26.126Z,100630.00
2022-10-23T23:21:29.919Z,100631.19
2022-10-23T23:24:32.572Z,100631.44
2022-10-23T23:27:34.768Z,100635.03
2022-10-23T23:30:37.417Z,100633.84
2022-10-23T23:33:39.653Z,100637.31
2022-10-23T23:36:49.255Z,100637.22
2022-10-23T23:39:54.717Z,100627.06
2022-10-23T23:42:57.203Z,100618.91
2022-10-23T23:45:59.512Z,100621.66
2022-10-23T23:49:02.124Z,100619.28
2022-10-23T23:52:04.447Z,100626.81
2022-10-23T23:55:08.043Z,100618.31
2022-10-23T23:58:11.975Z,100625.50
